sensor_id;sensor_type;location;lat;lon;timestamp;temperature;humidity
74296;SHT30;62690;48.420;-4.512;2022-08-03T05:55:22;22.31;66.17
74296;SHT30;62690;48.420;-4.512;2022-08-03T05:57:47;22.37;65.52
74296;SHT30;62690;48.420;-4.512;2022-08-03T06:00:13;22.39;65.38
74296;SHT30;62690;48.420;-4.512;2022-08-03T06:02:39;22.37;65.26
74296;SHT30;62690;48.420;-4.512;2022-08-03T06:05:05;22.39;65.15
74296;SHT30;62690;48.420;-4.512;2022-08-03T06:07:31;22.41;65.09
74296;SHT30;62690;48.420;-4.512;2022-08-03T06:09:56;22.44;65.03
74296;SHT30;62690;48.420;-4.512;2022-08-03T06:12:22;22.42;64.95
74296;SHT30;62690;48.420;-4.512;2022-08-03T06:14:47;22.44;64.78
74296;SHT30;62690;48.420;-4.512;2022-08-03T06:17:13;22.44;64.67
74296;SHT30;62690;48.420;-4.512;2022-08-03T06:19:38;22.47;64.73
74296;SHT30;62690;48.420;-4.512;2022-08-03T06:22:04;22.48;64.51
74296;SHT30;62690;48.420;-4.512;2022-08-03T06:24:29;22.51;64.44
74296;SHT30;62690;48.420;-4.512;2022-08-03T06:26:56;22.53;64.39
74296;SHT30;62690;48.420;-4.512;2022-08-03T06:29:21;22.58;64.32
74296;SHT30;62690;48.420;-4.512;2022-08-03T06:31:47;22.60;64.34
74296;SHT30;62690;48.420;-4.512;2022-08-03T06:34:12;22.60;64.49
74296;SHT30;62690;48.420;-4.512;2022-08-03T06:36:37;22.62;64.37
74296;SHT30;62690;48.420;-4.512;2022-08-03T06:39:03;22.62;64.49
74296;SHT30;62690;48.420;-4.512;2022-08-03T06:41:29;22.62;64.56
74296;SHT30;62690;48.420;-4.512;2022-08-03T06:43:54;22.63;64.49
74296;SHT30;62690;48.420;-4.512;2022-08-03T06:46:20;22.62;64.53
74296;SHT30;62690;48.420;-4.512;2022-08-03T06:48:46;22.65;64.67
74296;SHT30;62690;48.420;-4.512;2022-08-03T06:51:12;22.65;64.58
74296;SHT30;62690;48.420;-4.512;2022-08-03T06:53:37;22.63;64.48
74296;SHT30;62690;48.420;-4.512;2022-08-03T06:56:06;22.65;64.56
74296;SHT30;62690;48.420;-4.512;2022-08-03T06:58:32;22.68;64.44
74296;SHT30;62690;48.420;-4.512;2022-08-03T07:00:58;22.66;64.43
74296;SHT30;62690;48.420;-4.512;2022-08-03T07:03:23;22.70;64.46
74296;SHT30;62690;48.420;-4.512;2022-08-03T07:05:49;22.69;64.45
74296;SHT30;62690;48.420;-4.512;2022-08-03T07:08:15;22.72;64.43
74296;SHT30;62690;48.420;-4.512;2022-08-03T07:10:41;22.70;64.46
74296;SHT30;62690;48.420;-4.512;2022-08-03T07:13:07;22.73;64.43
74296;SHT30;62690;48.420;-4.512;2022-08-03T07:15:33;22.73;64.49
74296;SHT30;62690;48.420;-4.512;2022-08-03T07:17:59;22.73;64.34
74296;SHT30;62690;48.420;-4.512;2022-08-03T07:20:24;22.76;64.23
74296;SHT30;62690;48.420;-4.512;2022-08-03T07:22:49;22.77;64.16
74296;SHT30;62690;48.420;-4.512;2022-08-03T07:25:15;22.80;64.03
74296;SHT30;62690;48.420;-4.512;2022-08-03T07:27:44;22.82;63.95
74296;SHT30;62690;48.420;-4.512;2022-08-03T07:30:11;22.83;63.84
74296;SHT30;62690;48.420;-4.512;2022-08-03T07:32:36;22.85;63.82
74296;SHT30;62690;48.420;-4.512;2022-08-03T07:35:03;22.88;63.92
74296;SHT30;62690;48.420;-4.512;2022-08-03T07:37:29;22.88;63.86
74296;SHT30;62690;48.420;-4.512;2022-08-03T07:39:55;22.92;63.78
74296;SHT30;62690;48.420;-4.512;2022-08-03T07:42:21;22.95;63.81
74296;SHT30;62690;48.420;-4.512;2022-08-03T07:44:48;22.97;63.87
74296;SHT30;62690;48.420;-4.512;2022-08-03T07:47:23;22.99;63.87
74296;SHT30;62690;48.420;-4.512;2022-08-03T07:49:49;22.99;64.17
74296;SHT30;62690;48.420;-4.512;2022-08-03T07:52:15;23.02;64.09
74296;SHT30;62690;48.420;-4.512;2022-08-03T07:54:59;22.97;64.04
74296;SHT30;62690;48.420;-4.512;2022-08-03T07:57:25;22.97;64.06
74296;SHT30;62690;48.420;-4.512;2022-08-03T07:59:50;22.99;63.90
74296;SHT30;62690;48.420;-4.512;2022-08-03T08:02:15;23.00;63.80
74296;SHT30;62690;48.420;-4.512;2022-08-03T08:04:41;23.07;63.81
74296;SHT30;62690;48.420;-4.512;2022-08-03T08:07:06;23.10;63.67
74296;SHT30;62690;48.420;-4.512;2022-08-03T08:09:32;23.14;63.49
74296;SHT30;62690;48.420;-4.512;2022-08-03T08:11:58;23.23;63.35
74296;SHT30;62690;48.420;-4.512;2022-08-03T08:14:24;23.28;63.28
74296;SHT30;62690;48.420;-4.512;2022-08-03T08:16:49;23.31;63.20
74296;SHT30;62690;48.420;-4.512;2022-08-03T08:19:15;23.37;63.14
74296;SHT30;62690;48.420;-4.512;2022-08-03T08:21:41;23.41;63.13
74296;SHT30;62690;48.420;-4.512;2022-08-03T08:24:07;23.46;62.82
74296;SHT30;62690;48.420;-4.512;2022-08-03T08:26:32;23.47;62.73
74296;SHT30;62690;48.420;-4.512;2022-08-03T08:28:58;23.50;62.72
74296;SHT30;62690;48.420;-4.512;2022-08-03T08:31:23;23.58;62.70
74296;SHT30;62690;48.420;-4.512;2022-08-03T08:33:48;23.64;62.66
74296;SHT30;62690;48.420;-4.512;2022-08-03T08:36:14;23.65;62.60
74296;SHT30;62690;48.420;-4.512;2022-08-03T08:38:40;23.71;62.42
74296;SHT30;62690;48.420;-4.512;2022-08-03T08:41:08;23.74;62.17
74296;SHT30;62690;48.420;-4.512;2022-08-03T08:43:35;23.72;61.98
74296;SHT30;62690;48.420;-4.512;2022-08-03T08:46:00;23.77;62.13
74296;SHT30;62690;48.420;-4.512;2022-08-03T08:48:27;23.79;62.12
74296;SHT30;62690;48.420;-4.512;2022-08-03T08:50:55;23.86;62.09
74296;SHT30;62690;48.420;-4.512;2022-08-03T08:53:20;23.94;62.02
74296;SHT30;62690;48.420;-4.512;2022-08-03T08:55:47;23.97;62.28
74296;SHT30;62690;48.420;-4.512;2022-08-03T08:58:15;23.99;62.09
74296;SHT30;62690;48.420;-4.512;2022-08-03T09:00:43;24.02;62.06
74296;SHT30;62690;48.420;-4.512;2022-08-03T09:03:09;24.02;61.95
74296;SHT30;62690;48.420;-4.512;2022-08-03T09:05:35;24.05;61.68
74296;SHT30;62690;48.420;-4.512;2022-08-03T09:08:04;24.06;61.75
74296;SHT30;62690;48.420;-4.512;2022-08-03T09:10:29;24.12;61.67
74296;SHT30;62690;48.420;-4.512;2022-08-03T09:12:55;24.19;61.51
74296;SHT30;62690;48.420;-4.512;2022-08-03T09:15:26;24.23;61.33
74296;SHT30;62690;48.420;-4.512;2022-08-03T09:17:54;24.26;61.31
74296;SHT30;62690;48.420;-4.512;2022-08-03T09:20:21;24.33;61.32
74296;SHT30;62690;48.420;-4.512;2022-08-03T09:23:08;24.41;61.17
74296;SHT30;62690;48.420;-4.512;2022-08-03T09:25:40;24.49;60.95
74296;SHT30;62690;48.420;-4.512;2022-08-03T09:28:14;24.55;60.74
74296;SHT30;62690;48.420;-4.512;2022-08-03T09:30:42;24.61;60.85
74296;SHT30;62690;48.420;-4.512;2022-08-03T09:33:10;24.66;60.68
74296;SHT30;62690;48.420;-4.512;2022-08-03T09:35:43;24.71;60.46
74296;SHT30;62690;48.420;-4.512;2022-08-03T09:38:13;24.71;60.47
74296;SHT30;62690;48.420;-4.512;2022-08-03T09:40:39;24.73;60.60
74296;SHT30;62690;48.420;-4.512;2022-08-03T09:43:06;24.78;60.50
74296;SHT30;62690;48.420;-4.512;2022-08-03T09:45:36;24.83;60.36
74296;SHT30;62690;48.420;-4.512;2022-08-03T09:48:24;24.90;60.25
74296;SHT30;62690;48.420;-4.512;2022-08-03T09:50:52;24.97;60.23
74296;SHT30;62690;48.420;-4.512;2022-08-03T09:53:18;25.06;60.30
74296;SHT30;62690;48.420;-4.512;2022-08-03T09:58:22;25.19;59.59
74296;SHT30;62690;48.420;-4.512;2022-08-03T10:01:02;25.24;59.29
74296;SHT30;62690;48.420;-4.512;2022-08-03T10:03:32;25.29;59.35
74296;SHT30;62690;48.420;-4.512;2022-08-03T10:06:16;25.37;59.04
74296;SHT30;62690;48.420;-4.512;2022-08-03T10:08:44;25.42;59.11
74296;SHT30;62690;48.420;-4.512;2022-08-03T10:11:09;25.43;59.07
74296;SHT30;62690;48.420;-4.512;2022-08-03T10:13:35;25.49;59.06
74296;SHT30;62690;48.420;-4.512;2022-08-03T10:16:01;25.53;59.12
74296;SHT30;62690;48.420;-4.512;2022-08-03T10:18:29;25.62;59.04
74296;SHT30;62690;48.420;-4.512;2022-08-03T10:20:58;25.69;58.60
74296;SHT30;62690;48.420;-4.512;2022-08-03T10:23:27;25.76;58.55
74296;SHT30;62690;48.420;-4.512;2022-08-03T10:25:57;25.80;58.65
74296;SHT30;62690;48.420;-4.512;2022-08-03T10:28:33;25.90;58.24
74296;SHT30;62690;48.420;-4.512;2022-08-03T10:31:00;25.92;57.99
74296;SHT30;62690;48.420;-4.512;2022-08-03T10:33:31;25.94;57.95
74296;SHT30;62690;48.420;-4.512;2022-08-03T10:35:59;25.93;58.00
74296;SHT30;62690;48.420;-4.512;2022-08-03T10:38:33;25.96;58.03
74296;SHT30;62690;48.420;-4.512;2022-08-03T10:41:00;26.00;58.10
74296;SHT30;62690;48.420;-4.512;2022-08-03T10:43:50;26.12;58.14
74296;SHT30;62690;48.420;-4.512;2022-08-03T10:46:18;26.17;57.75
74296;SHT30;62690;48.420;-4.512;2022-08-03T10:48:45;26.21;58.06
74296;SHT30;62690;48.420;-4.512;2022-08-03T10:51:12;26.21;57.94
74296;SHT30;62690;48.420;-4.512;2022-08-03T10:53:40;26.21;57.76
74296;SHT30;62690;48.420;-4.512;2022-08-03T10:59:18;26.17;57.66
74296;SHT30;62690;48.420;-4.512;2022-08-03T11:01:55;26.18;57.90
74296;SHT30;62690;48.420;-4.512;2022-08-03T11:04:22;26.21;57.75
74296;SHT30;62690;48.420;-4.512;2022-08-03T11:09:40;26.33;57.58
74296;SHT30;62690;48.420;-4.512;2022-08-03T11:14:47;26.51;57.73
74296;SHT30;62690;48.420;-4.512;2022-08-03T11:17:13;26.59;57.32
74296;SHT30;62690;48.420;-4.512;2022-08-03T11:19:46;26.61;57.17
74296;SHT30;62690;48.420;-4.512;2022-08-03T11:22:12;26.68;57.52
74296;SHT30;62690;48.420;-4.512;2022-08-03T11:35:20;26.78;56.95
74296;SHT30;62690;48.420;-4.512;2022-08-03T11:40:36;26.94;57.23
74296;SHT30;62690;48.420;-4.512;2022-08-03T11:43:05;27.00;56.88
74296;SHT30;62690;48.420;-4.512;2022-08-03T11:45:31;27.08;56.33
74296;SHT30;62690;48.420;-4.512;2022-08-03T11:47:59;27.08;56.37
74296;SHT30;62690;48.420;-4.512;2022-08-03T11:50:35;27.08;55.70
74296;SHT30;62690;48.420;-4.512;2022-08-03T11:53:01;27.13;56.01
74296;SHT30;62690;48.420;-4.512;2022-08-03T11:55:29;27.15;56.37
74296;SHT30;62690;48.420;-4.512;2022-08-03T11:57:58;27.22;55.73
74296;SHT30;62690;48.420;-4.512;2022-08-03T12:00:29;27.19;55.74
74296;SHT30;62690;48.420;-4.512;2022-08-03T12:02:57;27.22;56.12
74296;SHT30;62690;48.420;-4.512;2022-08-03T12:05:37;27.25;56.16
74296;SHT30;62690;48.420;-4.512;2022-08-03T12:08:04;27.27;56.00
74296;SHT30;62690;48.420;-4.512;2022-08-03T12:10:30;27.30;56.15
74296;SHT30;62690;48.420;-4.512;2022-08-03T12:12:57;27.32;56.17
74296;SHT30;62690;48.420;-4.512;2022-08-03T12:15:30;27.35;56.24
74296;SHT30;62690;48.420;-4.512;2022-08-03T12:17:58;27.35;56.15
74296;SHT30;62690;48.420;-4.512;2022-08-03T12:20:26;27.35;56.49
74296;SHT30;62690;48.420;-4.512;2022-08-03T12:22:52;27.40;56.60
74296;SHT30;62690;48.420;-4.512;2022-08-03T12:25:24;27.49;56.67
74296;SHT30;62690;48.420;-4.512;2022-08-03T12:28:05;27.56;56.14
74296;SHT30;62690;48.420;-4.512;2022-08-03T12:30:31;27.61;55.96
74296;SHT30;62690;48.420;-4.512;2022-08-03T12:32:56;27.66;56.21
74296;SHT30;62690;48.420;-4.512;2022-08-03T12:35:23;27.74;56.14
74296;SHT30;62690;48.420;-4.512;2022-08-03T12:37:50;27.80;55.90
74296;SHT30;62690;48.420;-4.512;2022-08-03T12:40:23;27.81;55.37
74296;SHT30;62690;48.420;-4.512;2022-08-03T12:42:49;27.77;55.32
74296;SHT30;62690;48.420;-4.512;2022-08-03T12:50:23;27.64;55.50
74296;SHT30;62690;48.420;-4.512;2022-08-03T12:52:49;27.68;55.64
74296;SHT30;62690;48.420;-4.512;2022-08-03T12:55:19;27.80;55.60
74296;SHT30;62690;48.420;-4.512;2022-08-03T12:57:45;27.81;55.79
74296;SHT30;62690;48.420;-4.512;2022-08-03T13:00:13;27.86;55.40
74296;SHT30;62690;48.420;-4.512;2022-08-03T13:02:38;27.88;55.47
74296;SHT30;62690;48.420;-4.512;2022-08-03T13:05:14;27.90;55.23
74296;SHT30;62690;48.420;-4.512;2022-08-03T13:07:43;27.91;55.32
74296;SHT30;62690;48.420;-4.512;2022-08-03T13:10:11;27.90;54.88
74296;SHT30;62690;48.420;-4.512;2022-08-03T13:12:47;27.88;55.25
74296;SHT30;62690;48.420;-4.512;2022-08-03T13:15:13;27.88;55.38
74296;SHT30;62690;48.420;-4.512;2022-08-03T13:17:39;27.83;55.37
74296;SHT30;62690;48.420;-4.512;2022-08-03T13:20:05;27.78;55.24
74296;SHT30;62690;48.420;-4.512;2022-08-03T13:22:30;27.67;55.35
74296;SHT30;62690;48.420;-4.512;2022-08-03T13:24:57;27.68;55.63
74296;SHT30;62690;48.420;-4.512;2022-08-03T13:27:29;27.68;55.61
74296;SHT30;62690;48.420;-4.512;2022-08-03T13:29:54;27.70;55.29
74296;SHT30;62690;48.420;-4.512;2022-08-03T13:32:20;27.81;55.06
74296;SHT30;62690;48.420;-4.512;2022-08-03T13:34:46;28.04;54.95
74296;SHT30;62690;48.420;-4.512;2022-08-03T13:37:12;28.27;54.35
74296;SHT30;62690;48.420;-4.512;2022-08-03T13:39:38;28.48;53.93
74296;SHT30;62690;48.420;-4.512;2022-08-03T13:42:04;28.63;53.29
74296;SHT30;62690;48.420;-4.512;2022-08-03T13:44:30;28.77;53.44
74296;SHT30;62690;48.420;-4.512;2022-08-03T13:46:56;28.92;53.07
74296;SHT30;62690;48.420;-4.512;2022-08-03T13:49:22;29.03;52.37
74296;SHT30;62690;48.420;-4.512;2022-08-03T13:51:47;29.13;52.26
74296;SHT30;62690;48.420;-4.512;2022-08-03T13:54:13;29.14;51.97
74296;SHT30;62690;48.420;-4.512;2022-08-03T13:56:38;29.08;51.65
74296;SHT30;62690;48.420;-4.512;2022-08-03T13:59:04;28.92;52.15
74296;SHT30;62690;48.420;-4.512;2022-08-03T14:01:30;28.76;52.42
74296;SHT30;62690;48.420;-4.512;2022-08-03T14:03:56;28.55;53.16
74296;SHT30;62690;48.420;-4.512;2022-08-03T14:06:23;28.42;53.56
74296;SHT30;62690;48.420;-4.512;2022-08-03T14:08:49;28.37;53.79
74296;SHT30;62690;48.420;-4.512;2022-08-03T14:11:15;28.41;53.74
74296;SHT30;62690;48.420;-4.512;2022-08-03T14:13:41;28.46;53.83
74296;SHT30;62690;48.420;-4.512;2022-08-03T14:16:07;28.60;53.63
74296;SHT30;62690;48.420;-4.512;2022-08-03T14:18:32;28.65;53.51
74296;SHT30;62690;48.420;-4.512;2022-08-03T14:20:59;28.73;53.46
74296;SHT30;62690;48.420;-4.512;2022-08-03T14:23:25;28.73;53.45
74296;SHT30;62690;48.420;-4.512;2022-08-03T14:25:51;28.70;53.45
74296;SHT30;62690;48.420;-4.512;2022-08-03T14:28:18;28.68;53.42
74296;SHT30;62690;48.420;-4.512;2022-08-03T14:30:44;28.66;53.53
74296;SHT30;62690;48.420;-4.512;2022-08-03T14:33:09;28.72;53.45
74296;SHT30;62690;48.420;-4.512;2022-08-03T14:35:35;28.87;53.41
74296;SHT30;62690;48.420;-4.512;2022-08-03T14:38:00;29.11;52.60
74296;SHT30;62690;48.420;-4.512;2022-08-03T14:40:25;29.35;52.67
74296;SHT30;62690;48.420;-4.512;2022-08-03T14:42:51;29.53;51.87
74296;SHT30;62690;48.420;-4.512;2022-08-03T14:45:17;29.62;51.78
74296;SHT30;62690;48.420;-4.512;2022-08-03T14:47:42;29.62;51.72
74296;SHT30;62690;48.420;-4.512;2022-08-03T14:50:08;29.58;51.54
74296;SHT30;62690;48.420;-4.512;2022-08-03T14:52:33;29.41;51.89
74296;SHT30;62690;48.420;-4.512;2022-08-03T14:54:59;29.31;52.10
74296;SHT30;62690;48.420;-4.512;2022-08-03T14:57:25;29.21;52.58
74296;SHT30;62690;48.420;-4.512;2022-08-03T14:59:50;29.11;52.89
74296;SHT30;62690;48.420;-4.512;2022-08-03T15:02:16;28.95;53.27
74296;SHT30;62690;48.420;-4.512;2022-08-03T15:04:41;28.76;53.71
74296;SHT30;62690;48.420;-4.512;2022-08-03T15:07:07;28.60;53.93
74296;SHT30;62690;48.420;-4.512;2022-08-03T15:09:33;28.44;54.11
74296;SHT30;62690;48.420;-4.512;2022-08-03T15:11:58;28.32;54.57
74296;SHT30;62690;48.420;-4.512;2022-08-03T15:14:24;28.17;54.84
74296;SHT30;62690;48.420;-4.512;2022-08-03T15:16:50;28.12;55.01
74296;SHT30;62690;48.420;-4.512;2022-08-03T15:19:15;28.04;55.31
74296;SHT30;62690;48.420;-4.512;2022-08-03T15:21:41;27.94;55.70
74296;SHT30;62690;48.420;-4.512;2022-08-03T15:24:07;27.87;55.92
74296;SHT30;62690;48.420;-4.512;2022-08-03T15:26:32;27.78;56.28
74296;SHT30;62690;48.420;-4.512;2022-08-03T15:28:58;27.71;56.47
74296;SHT30;62690;48.420;-4.512;2022-08-03T15:31:24;27.68;56.46
74296;SHT30;62690;48.420;-4.512;2022-08-03T15:33:50;27.66;56.63
74296;SHT30;62690;48.420;-4.512;2022-08-03T15:36:18;27.61;56.64
74296;SHT30;62690;48.420;-4.512;2022-08-03T15:38:45;27.54;56.96
74296;SHT30;62690;48.420;-4.512;2022-08-03T15:41:13;27.51;56.99
74296;SHT30;62690;48.420;-4.512;2022-08-03T15:43:40;27.46;57.11
74296;SHT30;62690;48.420;-4.512;2022-08-03T15:46:05;27.39;57.12
74296;SHT30;62690;48.420;-4.512;2022-08-03T15:48:31;27.39;57.40
74296;SHT30;62690;48.420;-4.512;2022-08-03T15:50:57;27.30;57.70
74296;SHT30;62690;48.420;-4.512;2022-08-03T15:53:22;27.27;57.59
74296;SHT30;62690;48.420;-4.512;2022-08-03T15:55:48;27.25;57.88
74296;SHT30;62690;48.420;-4.512;2022-08-03T15:58:13;27.25;57.97
74296;SHT30;62690;48.420;-4.512;2022-08-03T16:00:39;27.23;57.94
74296;SHT30;62690;48.420;-4.512;2022-08-03T16:03:05;27.27;57.89
74296;SHT30;62690;48.420;-4.512;2022-08-03T16:05:31;27.33;57.80
74296;SHT30;62690;48.420;-4.512;2022-08-03T16:07:56;27.33;58.00
74296;SHT30;62690;48.420;-4.512;2022-08-03T16:10:22;27.30;57.93
74296;SHT30;62690;48.420;-4.512;2022-08-03T16:12:47;27.25;58.19
74296;SHT30;62690;48.420;-4.512;2022-08-03T16:15:13;27.19;58.21
74296;SHT30;62690;48.420;-4.512;2022-08-03T16:17:40;27.12;58.35
74296;SHT30;62690;48.420;-4.512;2022-08-03T16:20:08;27.09;58.57
74296;SHT30;62690;48.420;-4.512;2022-08-03T16:22:40;27.06;58.67
74296;SHT30;62690;48.420;-4.512;2022-08-03T16:25:06;27.09;58.75
74296;SHT30;62690;48.420;-4.512;2022-08-03T16:27:31;27.09;58.65
74296;SHT30;62690;48.420;-4.512;2022-08-03T16:29:57;27.19;58.90
74296;SHT30;62690;48.420;-4.512;2022-08-03T16:32:22;27.33;58.48
74296;SHT30;62690;48.420;-4.512;2022-08-03T16:34:47;27.45;58.20
74296;SHT30;62690;48.420;-4.512;2022-08-03T16:37:13;27.49;57.98
74296;SHT30;62690;48.420;-4.512;2022-08-03T16:39:38;27.46;57.84
74296;SHT30;62690;48.420;-4.512;2022-08-03T16:42:04;27.42;58.11
74296;SHT30;62690;48.420;-4.512;2022-08-03T16:44:30;27.40;57.96
74296;SHT30;62690;48.420;-4.512;2022-08-03T16:46:57;27.37;58.10
74296;SHT30;62690;48.420;-4.512;2022-08-03T16:49:23;27.42;58.04
74296;SHT30;62690;48.420;-4.512;2022-08-03T16:51:48;27.56;57.96
74296;SHT30;62690;48.420;-4.512;2022-08-03T16:54:14;27.68;57.79
74296;SHT30;62690;48.420;-4.512;2022-08-03T16:56:40;27.91;57.70
74296;SHT30;62690;48.420;-4.512;2022-08-03T16:59:05;28.22;57.05
74296;SHT30;62690;48.420;-4.512;2022-08-03T17:01:31;28.48;56.63
74296;SHT30;62690;48.420;-4.512;2022-08-03T17:03:58;28.68;56.35
74296;SHT30;62690;48.420;-4.512;2022-08-03T17:06:25;28.84;56.21
74296;SHT30;62690;48.420;-4.512;2022-08-03T17:08:51;29.06;55.97
74296;SHT30;62690;48.420;-4.512;2022-08-03T17:11:17;29.17;55.79
74296;SHT30;62690;48.420;-4.512;2022-08-03T17:13:42;29.21;54.98
74296;SHT30;62690;48.420;-4.512;2022-08-03T17:16:11;29.23;54.95
74296;SHT30;62690;48.420;-4.512;2022-08-03T17:18:44;29.16;54.82
74296;SHT30;62690;48.420;-4.512;2022-08-03T17:21:12;29.07;54.54
74296;SHT30;62690;48.420;-4.512;2022-08-03T17:26:24;28.69;55.07
74296;SHT30;62690;48.420;-4.512;2022-08-03T17:28:51;28.55;55.37
74296;SHT30;62690;48.420;-4.512;2022-08-03T17:31:18;28.42;55.64
74296;SHT30;62690;48.420;-4.512;2022-08-03T17:33:48;28.32;56.00
74296;SHT30;62690;48.420;-4.512;2022-08-03T17:36:17;28.22;56.26
74296;SHT30;62690;48.420;-4.512;2022-08-03T17:38:47;28.12;56.45
74296;SHT30;62690;48.420;-4.512;2022-08-03T17:41:14;28.05;56.40
74296;SHT30;62690;48.420;-4.512;2022-08-03T17:43:42;28.28;56.58
74296;SHT30;62690;48.420;-4.512;2022-08-03T17:46:11;28.87;55.89
74296;SHT30;62690;48.420;-4.512;2022-08-03T17:48:36;29.57;54.20
74296;SHT30;62690;48.420;-4.512;2022-08-03T17:51:06;30.29;53.03
74296;SHT30;62690;48.420;-4.512;2022-08-03T17:53:36;30.70;49.85
74296;SHT30;62690;48.420;-4.512;2022-08-03T17:56:20;30.81;49.69
74296;SHT30;62690;48.420;-4.512;2022-08-03T17:58:57;30.61;49.33
74296;SHT30;62690;48.420;-4.512;2022-08-03T18:01:38;30.25;50.32
74296;SHT30;62690;48.420;-4.512;2022-08-03T18:04:26;29.89;50.50
74296;SHT30;62690;48.420;-4.512;2022-08-03T18:06:52;29.53;50.99
74296;SHT30;62690;48.420;-4.512;2022-08-03T18:09:22;29.20;51.82
74296;SHT30;62690;48.420;-4.512;2022-08-03T18:11:54;28.93;52.53
74296;SHT30;62690;48.420;-4.512;2022-08-03T18:14:33;28.77;52.89
74296;SHT30;62690;48.420;-4.512;2022-08-03T18:17:04;28.58;53.04
74296;SHT30;62690;48.420;-4.512;2022-08-03T18:19:34;28.37;53.38
74296;SHT30;62690;48.420;-4.512;2022-08-03T18:22:00;28.17;53.61
74296;SHT30;62690;48.420;-4.512;2022-08-03T18:24:27;27.96;53.95
74296;SHT30;62690;48.420;-4.512;2022-08-03T18:26:53;27.78;54.21
74296;SHT30;62690;48.420;-4.512;2022-08-03T18:29:20;27.58;54.61
74296;SHT30;62690;48.420;-4.512;2022-08-03T18:31:46;27.39;54.93
74296;SHT30;62690;48.420;-4.512;2022-08-03T18:34:15;27.20;55.34
74296;SHT30;62690;48.420;-4.512;2022-08-03T18:36:47;27.08;55.39
74296;SHT30;62690;48.420;-4.512;2022-08-03T18:39:12;26.94;56.04
74296;SHT30;62690;48.420;-4.512;2022-08-03T18:41:38;26.81;56.44
74296;SHT30;62690;48.420;-4.512;2022-08-03T18:44:05;26.67;56.67
74296;SHT30;62690;48.420;-4.512;2022-08-03T18:47:02;26.48;56.98
74296;SHT30;62690;48.420;-4.512;2022-08-03T18:55:14;26.07;57.30
74296;SHT30;62690;48.420;-4.512;2022-08-03T18:57:48;25.99;57.06
74296;SHT30;62690;48.420;-4.512;2022-08-03T19:00:15;25.94;57.49
74296;SHT30;62690;48.420;-4.512;2022-08-03T19:02:48;25.92;57.21
74296;SHT30;62690;48.420;-4.512;2022-08-03T19:05:17;25.89;57.12
74296;SHT30;62690;48.420;-4.512;2022-08-03T19:07:51;25.86;57.14
74296;SHT30;62690;48.420;-4.512;2022-08-03T19:10:18;25.86;57.20
74296;SHT30;62690;48.420;-4.512;2022-08-03T19:12:52;25.82;57.04
74296;SHT30;62690;48.420;-4.512;2022-08-03T19:15:19;25.78;57.37
74296;SHT30;62690;48.420;-4.512;2022-08-03T19:17:47;25.72;57.08
74296;SHT30;62690;48.420;-4.512;2022-08-03T19:20:27;25.70;57.01
74296;SHT30;62690;48.420;-4.512;2022-08-03T19:22:54;25.66;57.12
74296;SHT30;62690;48.420;-4.512;2022-08-03T19:25:21;25.62;57.03
74296;SHT30;62690;48.420;-4.512;2022-08-03T19:27:47;25.63;57.09
74296;SHT30;62690;48.420;-4.512;2022-08-03T19:30:15;25.62;56.96
74296;SHT30;62690;48.420;-4.512;2022-08-03T19:33:00;25.53;56.91
74296;SHT30;62690;48.420;-4.512;2022-08-03T19:35:27;25.46;56.91
74296;SHT30;62690;48.420;-4.512;2022-08-03T19:37:54;25.38;57.04
74296;SHT30;62690;48.420;-4.512;2022-08-03T19:40:20;25.31;57.02
74296;SHT30;62690;48.420;-4.512;2022-08-03T19:45:31;25.17;57.15
74296;SHT30;62690;48.420;-4.512;2022-08-03T19:48:05;25.11;57.29
74296;SHT30;62690;48.420;-4.512;2022-08-03T19:50:33;25.07;57.54
74296;SHT30;62690;48.420;-4.512;2022-08-03T19:53:03;24.92;57.62
74296;SHT30;62690;48.420;-4.512;2022-08-03T19:55:29;24.86;57.67
74296;SHT30;62690;48.420;-4.512;2022-08-03T19:57:57;24.78;57.80
74296;SHT30;62690;48.420;-4.512;2022-08-03T20:00:25;24.67;57.90
74296;SHT30;62690;48.420;-4.512;2022-08-03T20:02:51;24.66;58.12
